Terminal Aerodrome Forecast
Issued by NWS

Home | Current Version | Previous Version | Text Only | Print | Product List | Glossary On
Versions: 1 2 3 4 5 6 7 8 9 10 11 12
245
FTUS45 KVEF 281120
TAFHND
TAF
KHND 281120Z 2812/2912 VRB05KT P6SM VCSH SCT110 BKN200
     FM281800 08008KT P6SM SCT120 SCT200
     FM290200 18006KT P6SM SCT110 BKN200=

USA.gov is the U.S. government's official web portal to all federal, state and local government web resources and services.